Time;durP1;ratioP1;P1;durP2;ratioP2;P2;SDS_P1;SDS_P2;PMS_P1;PMS_P2;Temp;Humidity;BMP_temperature;BMP_pressure;BME280_temperature;BME280_humidity;BME280_pressure;Samples;Min_cycle;Max_cycle;Signal;HPM_P1;HPM_P2
2023/10/03 00:00:49;;;;;;;57.73;32.37;;;18.00;1.00;;;;;;4959437;28;20438;-70
2023/10/03 00:03:17;;;;;;;48.43;30.80;;;17.90;1.00;;;;;;4994112;28;20424;-70
2023/10/03 00:05:47;;;;;;;49.17;29.37;;;18.00;1.00;;;;;;4976677;28;20443;-71
2023/10/03 00:08:16;;;;;;;56.20;32.43;;;17.90;1.00;;;;;;4977117;28;20462;-71
2023/10/03 00:10:45;;;;;;;51.83;30.13;;;17.90;1.00;;;;;;4993181;28;20400;-69
2023/10/03 00:13:12;;;;;;;49.47;29.87;;;17.90;1.00;;;;;;4976583;28;20778;-72
2023/10/03 00:15:44;;;;;;;52.33;31.00;;;17.90;1.00;;;;;;4960837;28;20495;-69
2023/10/03 00:18:12;;;;;;;50.27;30.30;;;17.90;1.00;;;;;;4977011;28;20427;-72
2023/10/03 00:20:41;;;;;;;52.77;30.77;;;17.80;1.00;;;;;;4992490;28;20428;-69
2023/10/03 00:23:07;;;;;;;49.23;30.37;;;17.80;1.00;;;;;;4976455;28;20435;-69
2023/10/03 00:25:35;;;;;;;42.53;28.33;;;17.80;1.00;;;;;;4960273;28;20916;-70
2023/10/03 00:28:05;;;;;;;49.37;29.73;;;17.70;1.00;;;;;;4976488;28;20463;-72
2023/10/03 00:30:36;;;;;;;43.80;28.07;;;17.70;1.00;;;;;;4975442;28;20424;-71
2023/10/03 00:33:04;;;;;;;45.30;30.10;;;17.70;1.00;;;;;;4976470;28;20448;-70
2023/10/03 00:35:31;;;;;;;49.93;29.80;;;17.70;1.00;;;;;;4976252;28;20794;-70
2023/10/03 00:38:05;;;;;;;49.57;30.60;;;17.60;1.00;;;;;;4976687;28;20427;-71
2023/10/03 00:40:35;;;;;;;48.60;31.03;;;17.60;1.00;;;;;;4992643;28;20424;-70
2023/10/03 00:43:03;;;;;;;46.83;31.20;;;17.60;1.00;;;;;;4977081;28;20762;-70
2023/10/03 00:45:29;;;;;;;50.27;29.07;;;17.60;1.00;;;;;;4960156;28;20785;-70
2023/10/03 00:47:59;;;;;;;47.53;26.67;;;17.60;1.00;;;;;;4976394;28;20454;-70
2023/10/03 00:50:33;;;;;;;40.03;28.70;;;17.60;1.00;;;;;;4992638;28;20416;-70
2023/10/03 00:53:10;;;;;;;46.43;27.90;;;17.60;1.00;;;;;;4961870;28;20435;-69
2023/10/03 00:55:45;;;;;;;52.47;30.33;;;17.50;1.00;;;;;;4977252;28;20422;-70
2023/10/03 01:00:50;;;;;;;61.23;30.70;;;17.50;1.00;;;;;;4975088;28;20527;-70
2023/10/03 01:03:38;;;;;;;42.60;28.23;;;17.50;1.00;;;;;;4993394;28;20860;-69
2023/10/03 01:06:09;;;;;;;45.37;26.00;;;17.50;1.00;;;;;;4975802;28;20486;-69
2023/10/03 01:08:41;;;;;;;41.67;27.47;;;17.40;1.00;;;;;;4976149;28;20576;-70
2023/10/03 01:11:23;;;;;;;50.30;27.40;;;17.40;1.00;;;;;;4975536;28;20438;-71
2023/10/03 01:13:57;;;;;;;46.17;30.40;;;17.40;1.00;;;;;;4965928;28;20393;-70
2023/10/03 01:16:36;;;;;;;47.97;28.93;;;17.30;1.00;;;;;;4981074;28;20804;-70
2023/10/03 01:19:21;;;;;;;44.83;28.60;;;17.30;1.00;;;;;;4969468;28;20771;-72
2023/10/03 01:21:50;;;;;;;46.67;28.43;;;17.30;1.00;;;;;;4978995;28;20498;-73
2023/10/03 01:24:21;;;;;;;46.40;29.40;;;17.30;1.00;;;;;;4996696;28;20999;-69
2023/10/03 01:26:48;;;;;;;51.77;30.30;;;17.30;1.00;;;;;;4980126;28;20470;-69
2023/10/03 01:29:15;;;;;;;47.40;29.50;;;17.30;1.00;;;;;;4962721;28;20896;-70
2023/10/03 01:31:43;;;;;;;40.30;27.23;;;17.30;1.00;;;;;;4996182;28;20914;-70
2023/10/03 01:34:10;;;;;;;53.07;30.27;;;17.30;1.00;;;;;;4979774;28;20432;-69
2023/10/03 01:36:39;;;;;;;50.30;30.90;;;17.30;1.00;;;;;;4979419;28;20419;-69
2023/10/03 01:39:11;;;;;;;45.67;30.17;;;17.30;1.00;;;;;;4979844;28;20447;-72
2023/10/03 01:41:37;;;;;;;43.27;28.73;;;17.30;1.00;;;;;;4995514;28;20428;-70
2023/10/03 01:44:05;;;;;;;49.67;29.60;;;17.30;1.00;;;;;;4978875;28;20431;-70
2023/10/03 01:46:32;;;;;;;52.83;28.03;;;17.30;1.00;;;;;;4996615;28;20499;-69
2023/10/03 01:48:58;;;;;;;46.27;28.83;;;17.30;1.00;;;;;;4996321;28;20463;-70
2023/10/03 01:51:24;;;;;;;46.70;28.43;;;17.30;1.00;;;;;;4995624;28;20498;-71
2023/10/03 01:53:51;;;;;;;57.37;31.17;;;17.30;1.00;;;;;;4963132;28;20669;-70
2023/10/03 01:56:17;;;;;;;51.17;29.43;;;17.30;1.00;;;;;;4962884;28;20420;-70
2023/10/03 01:58:44;;;;;;;50.67;31.90;;;17.30;1.00;;;;;;4963052;28;20416;-70
2023/10/03 02:01:12;;;;;;;53.23;29.03;;;17.30;1.00;;;;;;4995299;28;20980;-70
2023/10/03 02:03:39;;;;;;;47.27;27.13;;;17.30;1.00;;;;;;4963367;28;20432;-69
2023/10/03 02:06:07;;;;;;;38.73;26.20;;;17.30;1.00;;;;;;4963013;28;20771;-69
2023/10/03 02:08:34;;;;;;;47.50;29.60;;;17.30;1.00;;;;;;4978777;28;20463;-70
2023/10/03 02:11:05;;;;;;;49.30;29.63;;;17.30;1.00;;;;;;4977948;28;20424;-69
2023/10/03 02:13:34;;;;;;;46.37;26.90;;;17.30;1.00;;;;;;4963606;28;20886;-70
2023/10/03 02:16:01;;;;;;;47.20;28.60;;;17.30;1.00;;;;;;4963431;28;20471;-70
2023/10/03 02:18:27;;;;;;;51.03;28.47;;;17.30;1.00;;;;;;4963110;28;20554;-70
2023/10/03 02:21:01;;;;;;;55.57;29.17;;;17.30;1.00;;;;;;4961633;28;20448;-69
2023/10/03 02:23:28;;;;;;;44.33;28.40;;;17.30;1.00;;;;;;4995683;28;20784;-70
2023/10/03 02:26:10;;;;;;;40.50;26.83;;;17.30;1.00;;;;;;4960104;28;20420;-69
2023/10/03 02:28:38;;;;;;;50.17;27.87;;;17.30;1.00;;;;;;4977509;28;20464;-70
2023/10/03 02:31:09;;;;;;;48.80;30.00;;;17.40;1.00;;;;;;4977168;28;20428;-70
2023/10/03 02:33:37;;;;;;;46.23;28.23;;;17.40;1.00;;;;;;4978825;28;20742;-69
2023/10/03 02:36:05;;;;;;;50.67;29.97;;;17.40;1.00;;;;;;4962638;28;20436;-70
2023/10/03 02:38:37;;;;;;;54.47;27.67;;;17.30;1.00;;;;;;4978374;28;20412;-69
2023/10/03 02:41:07;;;;;;;45.77;28.30;;;17.30;1.00;;;;;;4978523;28;20430;-70
2023/10/03 02:43:35;;;;;;;51.20;29.60;;;17.30;1.00;;;;;;4978366;28;20431;-69
2023/10/03 02:46:14;;;;;;;45.20;27.80;;;17.30;1.00;;;;;;4962168;28;20448;-70
2023/10/03 02:48:41;;;;;;;46.47;29.83;;;17.30;1.00;;;;;;4979729;28;20948;-69
2023/10/03 02:51:08;;;;;;;44.00;29.33;;;17.30;1.00;;;;;;4977430;28;20494;-69
2023/10/03 02:53:35;;;;;;;55.40;29.73;;;17.30;1.00;;;;;;4962374;28;20408;-70
2023/10/03 02:56:07;;;;;;;58.47;29.90;;;17.30;1.00;;;;;;4946037;28;20510;-70
2023/10/03 02:58:35;;;;;;;50.07;28.93;;;17.30;1.00;;;;;;4978451;28;20420;-70
2023/10/03 03:01:01;;;;;;;51.27;28.30;;;17.30;1.00;;;;;;4961085;28;20534;-70
2023/10/03 03:03:32;;;;;;;47.27;27.50;;;17.30;1.00;;;;;;4961937;28;20405;-72
2023/10/03 03:06:09;;;;;;;54.13;29.93;;;17.30;1.00;;;;;;4962484;28;20518;-72
2023/10/03 03:08:44;;;;;;;48.13;27.20;;;17.30;1.00;;;;;;4979492;28;20868;-69
2023/10/03 03:11:28;;;;;;;46.77;27.40;;;17.30;1.00;;;;;;4966244;28;20532;-70
2023/10/03 03:13:54;;;;;;;48.40;27.87;;;17.30;1.00;;;;;;4962674;28;20459;-69
2023/10/03 03:16:21;;;;;;;44.80;26.07;;;17.30;1.00;;;;;;4945293;28;20507;-72
2023/10/03 03:18:50;;;;;;;46.30;27.57;;;17.30;1.00;;;;;;4995120;28;20519;-69
2023/10/03 03:21:20;;;;;;;50.50;27.07;;;17.40;1.00;;;;;;4976381;28;20941;-70
2023/10/03 03:24:08;;;;;;;37.90;24.13;;;17.40;1.00;;;;;;4994707;28;20424;-70
2023/10/03 03:26:36;;;;;;;45.07;26.37;;;17.40;1.30;;;;;;4980413;28;20424;-69
2023/10/03 03:29:21;;;;;;;40.67;23.60;;;17.40;1.00;;;;;;4977014;28;20467;-70
2023/10/03 03:31:51;;;;;;;41.53;25.03;;;17.40;1.00;;;;;;4976389;28;20444;-70
2023/10/03 03:34:18;;;;;;;39.20;25.20;;;17.40;1.00;;;;;;4962378;28;20423;-70
2023/10/03 03:36:46;;;;;;;44.70;24.17;;;17.40;1.00;;;;;;4993756;28;20789;-70
2023/10/03 03:39:16;;;;;;;40.33;24.37;;;17.40;1.00;;;;;;4977610;28;20416;-69
2023/10/03 03:41:43;;;;;;;43.90;24.93;;;17.40;1.00;;;;;;4960109;28;20530;-69
2023/10/03 03:44:13;;;;;;;38.77;24.17;;;17.30;1.00;;;;;;4961403;28;20931;-70
2023/10/03 03:46:44;;;;;;;44.40;25.50;;;17.30;1.00;;;;;;4961608;28;20548;-69
2023/10/03 03:49:12;;;;;;;43.53;24.50;;;17.30;1.00;;;;;;4994376;28;20559;-70
2023/10/03 03:51:41;;;;;;;40.57;23.67;;;17.30;1.00;;;;;;4960719;28;20949;-69
2023/10/03 03:54:12;;;;;;;41.47;21.70;;;17.30;1.00;;;;;;4993952;28;20630;-69
2023/10/03 03:56:40;;;;;;;39.57;21.93;;;17.30;1.00;;;;;;4975866;28;20794;-70
2023/10/03 03:59:08;;;;;;;31.90;20.53;;;17.30;1.00;;;;;;4977238;28;20444;-70
2023/10/03 04:01:34;;;;;;;33.70;20.73;;;17.30;1.00;;;;;;4960367;28;20948;-70
2023/10/03 04:04:01;;;;;;;32.00;19.60;;;17.30;1.00;;;;;;4958639;28;20424;-69
2023/10/03 04:06:28;;;;;;;34.10;19.80;;;17.30;1.00;;;;;;4961245;28;20428;-71
2023/10/03 04:08:55;;;;;;;33.13;20.00;;;17.30;1.00;;;;;;4977043;28;20495;-69
2023/10/03 04:11:21;;;;;;;31.77;20.10;;;17.40;1.00;;;;;;4992342;28;20433;-69
2023/10/03 04:13:55;;;;;;;32.73;19.20;;;17.40;1.00;;;;;;4960143;28;20454;-69
2023/10/03 04:16:28;;;;;;;36.57;18.57;;;17.30;1.00;;;;;;4977540;28;20474;-70
2023/10/03 04:18:54;;;;;;;28.53;16.23;;;17.40;1.00;;;;;;4976419;28;20431;-70
2023/10/03 04:21:20;;;;;;;35.00;17.90;;;17.40;1.00;;;;;;4958886;28;20459;-69
2023/10/03 04:23:56;;;;;;;26.33;15.50;;;17.30;1.00;;;;;;4962788;28;20420;-70
2023/10/03 04:26:23;;;;;;;29.73;16.97;;;17.30;1.00;;;;;;4976474;28;20475;-69
2023/10/03 04:28:49;;;;;;;28.03;15.20;;;17.30;1.00;;;;;;4960460;28;20468;-71
2023/10/03 04:31:16;;;;;;;26.23;14.93;;;17.30;1.00;;;;;;4943404;28;20444;-70
2023/10/03 04:33:45;;;;;;;29.10;15.67;;;17.40;1.00;;;;;;4993686;28;20945;-70
2023/10/03 04:36:14;;;;;;;26.73;15.40;;;17.30;1.00;;;;;;4976740;28;20448;-71
2023/10/03 04:38:42;;;;;;;26.83;14.60;;;17.40;1.00;;;;;;4976803;28;20412;-70
2023/10/03 04:41:11;;;;;;;27.87;16.93;;;17.40;1.00;;;;;;4960657;28;20436;-70
2023/10/03 04:43:39;;;;;;;27.00;15.37;;;17.40;1.00;;;;;;4960558;28;20412;-72
2023/10/03 04:46:08;;;;;;;21.23;13.67;;;17.40;1.00;;;;;;4974855;28;20424;-72
2023/10/03 04:48:37;;;;;;;21.47;13.13;;;17.40;1.00;;;;;;4997204;28;20789;-69
2023/10/03 04:51:05;;;;;;;25.30;15.70;;;17.30;1.00;;;;;;4979925;28;20423;-69
2023/10/03 04:53:30;;;;;;;22.93;12.13;;;17.30;1.00;;;;;;4980282;28;20431;-70
2023/10/03 04:55:59;;;;;;;21.20;12.57;;;17.30;1.00;;;;;;4948023;28;20921;-69
2023/10/03 04:58:26;;;;;;;27.80;13.27;;;17.30;1.00;;;;;;4964561;28;20208;-70
2023/10/03 05:00:54;;;;;;;26.53;13.40;;;17.30;1.00;;;;;;4979154;28;20428;-69
2023/10/03 05:03:22;;;;;;;17.73;12.40;;;17.30;1.00;;;;;;4963826;28;20450;-70
2023/10/03 05:05:48;;;;;;;23.47;12.70;;;17.30;1.00;;;;;;4964288;28;20432;-69
2023/10/03 05:08:18;;;;;;;20.77;12.10;;;17.40;1.00;;;;;;4947955;28;20968;-69
2023/10/03 05:10:46;;;;;;;19.23;11.07;;;17.30;1.00;;;;;;4996332;28;20404;-70
2023/10/03 05:13:14;;;;;;;17.53;11.80;;;17.30;1.00;;;;;;4963933;28;20482;-69
2023/10/03 05:15:40;;;;;;;20.97;11.47;;;17.30;1.00;;;;;;4980149;28;20408;-72
2023/10/03 05:18:06;;;;;;;19.20;12.13;;;17.30;1.00;;;;;;4964224;28;20444;-69
2023/10/03 05:20:37;;;;;;;20.77;12.20;;;17.30;1.00;;;;;;4977973;28;20448;-71
2023/10/03 05:23:05;;;;;;;18.03;11.40;;;17.30;1.00;;;;;;4980578;28;20300;-70
2023/10/03 05:25:36;;;;;;;22.73;11.17;;;17.20;1.00;;;;;;4962859;28;20766;-71
2023/10/03 05:28:06;;;;;;;19.10;11.30;;;17.20;1.00;;;;;;4965170;28;21038;-70
2023/10/03 05:30:35;;;;;;;21.17;11.40;;;17.20;1.00;;;;;;4963473;28;20439;-72
2023/10/03 05:33:05;;;;;;;17.23;9.97;;;17.20;1.00;;;;;;4979753;28;20824;-72
2023/10/03 05:35:32;;;;;;;17.83;10.77;;;17.20;1.00;;;;;;4979956;28;20503;-71
2023/10/03 05:37:59;;;;;;;20.63;11.87;;;17.20;1.00;;;;;;4978178;28;20416;-70
2023/10/03 05:40:27;;;;;;;15.73;10.00;;;17.20;1.00;;;;;;4962061;28;20435;-69
2023/10/03 05:42:54;;;;;;;15.00;10.10;;;17.20;1.00;;;;;;4996509;28;20502;-67
2023/10/03 05:45:20;;;;;;;16.90;10.33;;;17.20;1.00;;;;;;4996750;28;20436;-66
2023/10/03 05:47:47;;;;;;;22.33;11.10;;;17.20;1.00;;;;;;4996632;28;20498;-66
2023/10/03 05:50:15;;;;;;;18.70;10.23;;;17.20;1.00;;;;;;4978216;28;20692;-67
2023/10/03 05:52:43;;;;;;;14.23;9.17;;;17.20;1.00;;;;;;4978690;28;20463;-67
2023/10/03 05:55:09;;;;;;;13.60;9.93;;;17.20;1.00;;;;;;4996193;28;20416;-69
2023/10/03 05:57:37;;;;;;;18.67;10.13;;;17.10;1.00;;;;;;4996384;28;20495;-66
2023/10/03 06:00:09;;;;;;;15.23;9.60;;;17.20;1.00;;;;;;4994946;28;20404;-66
2023/10/03 06:02:36;;;;;;;17.40;10.80;;;17.20;1.00;;;;;;4996400;28;20424;-66
2023/10/03 06:05:02;;;;;;;13.77;9.20;;;17.20;1.00;;;;;;4996297;28;21022;-66
2023/10/03 06:07:28;;;;;;;19.23;9.57;;;17.20;1.00;;;;;;4996434;28;20416;-66
2023/10/03 06:09:55;;;;;;;20.47;10.37;;;17.20;1.00;;;;;;4995704;28;20415;-66
2023/10/03 06:12:23;;;;;;;18.17;9.10;;;17.30;1.00;;;;;;4996347;28;20188;-67
2023/10/03 06:14:49;;;;;;;19.27;9.83;;;17.20;99.90;;;;;;4995927;28;20447;-66
2023/10/03 06:25:01;;;;;;;19.60;10.40;;;17.30;99.90;;;;;;5882246;23;20471;-74
2023/10/03 06:27:27;;;;;;;17.30;10.73;;;17.30;99.90;;;;;;5017421;28;20782;-82
2023/10/03 06:29:52;;;;;;;20.83;10.97;;;17.30;99.90;;;;;;5035422;28;20246;-80
2023/10/03 06:32:18;;;;;;;16.03;10.13;;;17.30;99.90;;;;;;5035748;28;20183;-78
2023/10/03 06:34:44;;;;;;;14.17;9.17;;;17.30;99.90;;;;;;5037547;28;20273;-78
2023/10/03 06:37:10;;;;;;;22.13;10.43;;;17.40;99.90;;;;;;5038044;28;20183;-78
2023/10/03 06:39:35;;;;;;;15.97;9.80;;;17.40;99.90;;;;;;5055458;28;20186;-78
2023/10/03 06:42:01;;;;;;;21.80;11.63;;;17.40;99.90;;;;;;5037356;28;20167;-75
2023/10/03 06:44:27;;;;;;;22.63;10.87;;;17.50;99.90;;;;;;5054315;28;20163;-75
2023/10/03 06:46:53;;;;;;;14.60;9.70;;;17.50;99.90;;;;;;5055089;28;20246;-75
2023/10/03 06:49:22;;;;;;;18.77;11.30;;;17.50;99.90;;;;;;5037199;28;20290;-75
2023/10/03 06:51:50;;;;;;;15.07;9.73;;;17.50;99.90;;;;;;5055012;28;20402;-75
2023/10/03 06:54:16;;;;;;;19.77;10.47;;;17.60;99.90;;;;;;5054145;28;20447;-78
2023/10/03 06:56:42;;;;;;;20.50;10.30;;;17.60;99.90;;;;;;5031616;28;20453;-75
2023/10/03 06:59:11;;;;;;;19.60;10.70;;;17.60;99.90;;;;;;5034477;28;20813;-75
2023/10/03 07:01:37;;;;;;;20.23;10.70;;;17.70;99.90;;;;;;5034281;28;20245;-75
2023/10/03 07:04:06;;;;;;;21.23;10.77;;;17.80;99.90;;;;;;5033798;28;20493;-75
2023/10/03 07:06:33;;;;;;;20.17;10.90;;;17.90;99.90;;;;;;5034290;28;20422;-76
2023/10/03 07:08:59;;;;;;;18.80;10.70;;;17.90;99.90;;;;;;5034188;28;20457;-77
2023/10/03 07:11:26;;;;;;;20.40;10.27;;;17.90;99.90;;;;;;5033485;28;20391;-78
2023/10/03 07:13:52;;;;;;;20.53;11.00;;;18.00;99.90;;;;;;5033553;28;20739;-76
2023/10/03 07:16:18;;;;;;;19.67;10.50;;;18.00;99.90;;;;;;5034157;28;20187;-77
2023/10/03 07:18:44;;;;;;;26.13;11.30;;;18.10;99.90;;;;;;5033879;28;20611;-78
2023/10/03 07:21:10;;;;;;;21.10;12.23;;;18.20;99.90;;;;;;5016399;28;20468;-76
2023/10/03 07:23:36;;;;;;;24.83;12.30;;;18.20;99.90;;;;;;5033829;28;20684;-76
2023/10/03 07:26:03;;;;;;;17.03;10.67;;;18.20;99.90;;;;;;5033662;28;20206;-75
2023/10/03 07:28:29;;;;;;;23.80;12.20;;;18.30;99.90;;;;;;5033849;28;20442;-77
2023/10/03 07:30:56;;;;;;;24.50;11.97;;;18.40;99.90;;;;;;5033791;28;20430;-77
2023/10/03 07:33:22;;;;;;;15.10;9.70;;;18.40;99.90;;;;;;5033835;28;20437;-75
2023/10/03 07:35:48;;;;;;;23.40;12.77;;;18.40;99.90;;;;;;5033128;28;20414;-75
2023/10/03 07:38:14;;;;;;;21.87;11.47;;;18.40;99.90;;;;;;5033547;28;20740;-76
2023/10/03 07:40:43;;;;;;;21.37;12.00;;;18.40;99.90;;;;;;5033734;28;20403;-75
2023/10/03 07:43:09;;;;;;;20.60;11.30;;;18.50;99.90;;;;;;5033650;28;20402;-78
2023/10/03 07:45:40;;;;;;;22.37;11.67;;;18.50;99.90;;;;;;5032835;28;20418;-75
2023/10/03 07:48:06;;;;;;;22.97;9.67;;;18.60;99.90;;;;;;5033684;28;20446;-75
2023/10/03 07:50:35;;;;;;;19.17;10.40;;;18.70;99.90;;;;;;5033652;28;20403;-75
2023/10/03 07:53:11;;;;;;;21.17;11.13;;;18.80;99.90;;;;;;5033421;28;20395;-77
2023/10/03 07:55:38;;;;;;;24.43;11.30;;;18.80;99.90;;;;;;5032626;28;20418;-76
2023/10/03 07:58:05;;;;;;;21.33;10.50;;;18.80;99.90;;;;;;5033158;28;20736;-75
2023/10/03 08:00:31;;;;;;;20.60;11.07;;;18.80;99.90;;;;;;5033422;28;20398;-75
2023/10/03 08:02:57;;;;;;;26.17;11.83;;;18.90;99.90;;;;;;5033323;28;20395;-76
2023/10/03 08:05:27;;;;;;;24.93;12.97;;;19.00;99.90;;;;;;5032590;28;20425;-75
2023/10/03 08:07:54;;;;;;;24.97;12.00;;;19.00;99.90;;;;;;5033305;28;20532;-79
2023/10/03 08:10:20;;;;;;;20.43;11.53;;;19.10;99.90;;;;;;5033281;28;20390;-75
2023/10/03 08:12:49;;;;;;;22.20;11.90;;;19.10;99.90;;;;;;5033317;28;20409;-75
2023/10/03 08:15:17;;;;;;;23.70;13.10;;;19.10;99.90;;;;;;5014542;28;20282;-77
2023/10/03 08:17:45;;;;;;;21.90;11.87;;;19.10;99.90;;;;;;5033189;28;20402;-77
2023/10/03 08:20:14;;;;;;;21.90;12.60;;;19.20;99.90;;;;;;5033246;28;20409;-76
2023/10/03 08:22:41;;;;;;;20.80;12.57;;;19.20;99.90;;;;;;5032958;28;20485;-75
2023/10/03 08:25:11;;;;;;;22.27;11.27;;;19.30;99.90;;;;;;5032257;28;20513;-76
2023/10/03 08:27:36;;;;;;;22.97;11.67;;;19.30;99.90;;;;;;5032822;28;20434;-77
2023/10/03 08:30:04;;;;;;;18.53;11.20;;;19.40;99.90;;;;;;5033177;28;20445;-77
2023/10/03 08:32:31;;;;;;;23.50;12.00;;;19.30;99.90;;;;;;5032605;28;20210;-75
2023/10/03 08:34:57;;;;;;;22.27;11.63;;;19.30;99.90;;;;;;5032151;28;20426;-78
2023/10/03 08:37:23;;;;;;;23.63;12.43;;;19.30;99.90;;;;;;5032995;28;20399;-77
2023/10/03 08:39:49;;;;;;;22.03;13.07;;;19.40;99.90;;;;;;5032849;28;20284;-75
2023/10/03 08:42:39;;;;;;;22.40;12.23;;;19.40;99.90;;;;;;5032940;28;20206;-76
2023/10/03 08:45:27;;;;;;;22.17;12.57;;;19.40;99.90;;;;;;5030731;28;20438;-75
2023/10/03 08:47:53;;;;;;;30.63;13.80;;;19.40;99.90;;;;;;5014838;28;20790;-77
2023/10/03 08:50:33;;;;;;;21.87;12.23;;;19.40;99.90;;;;;;5032674;28;20754;-77
2023/10/03 08:55:45;;;;;;;33.83;13.13;;;19.40;99.90;;;;;;5031995;28;20580;-75
2023/10/03 08:58:18;;;;;;;23.30;13.53;;;19.40;99.90;;;;;;5032980;28;20501;-78
2023/10/03 09:00:47;;;;;;;18.90;11.63;;;19.40;99.90;;;;;;5032786;28;20496;-76
2023/10/03 09:03:14;;;;;;;17.40;10.50;;;19.40;99.90;;;;;;5032732;28;20418;-75
2023/10/03 09:05:41;;;;;;;25.37;12.13;;;19.50;99.90;;;;;;5031659;28;20793;-78
2023/10/03 09:08:09;;;;;;;32.10;13.43;;;19.50;99.90;;;;;;5032652;28;20477;-77
2023/10/03 09:10:43;;;;;;;26.63;13.13;;;19.60;99.90;;;;;;5032668;28;20644;-77
2023/10/03 09:13:15;;;;;;;25.73;11.23;;;19.70;99.90;;;;;;5032595;28;20430;-75
2023/10/03 09:15:42;;;;;;;21.40;11.80;;;19.70;99.90;;;;;;5031778;28;20407;-75
2023/10/03 09:18:15;;;;;;;24.03;11.80;;;19.70;99.90;;;;;;5032580;28;20410;-77
2023/10/03 09:20:42;;;;;;;20.23;11.23;;;19.70;99.90;;;;;;5014985;28;20415;-78
2023/10/03 09:23:09;;;;;;;23.50;11.67;;;19.80;99.90;;;;;;5032379;28;20752;-75
2023/10/03 09:25:41;;;;;;;20.07;11.33;;;19.80;99.90;;;;;;5031493;28;20491;-75
2023/10/03 09:28:08;;;;;;;25.30;12.40;;;20.00;99.90;;;;;;5032461;28;20452;-75
2023/10/03 09:30:40;;;;;;;19.07;11.67;;;20.10;99.90;;;;;;5032479;28;20822;-77
2023/10/03 09:33:08;;;;;;;21.90;10.70;;;20.30;99.90;;;;;;5032348;28;20394;-75
2023/10/03 09:35:34;;;;;;;17.50;11.73;;;20.40;99.90;;;;;;5034900;28;20418;-76
2023/10/03 09:38:06;;;;;;;17.47;10.57;;;20.50;99.90;;;;;;5036032;28;20763;-75
2023/10/03 09:40:51;;;;;;;17.03;10.13;;;20.60;99.90;;;;;;5035892;28;20878;-76
2023/10/03 09:43:27;;;;;;;14.13;8.67;;;20.50;99.90;;;;;;5036185;28;20403;-78
2023/10/03 09:45:56;;;;;;;16.70;10.53;;;20.50;99.90;;;;;;5035262;28;20789;-72
2023/10/03 09:48:24;;;;;;;18.83;10.13;;;20.50;99.90;;;;;;5035800;28;20957;-74
2023/10/03 09:50:54;;;;;;;18.50;9.90;;;20.70;99.90;;;;;;5018051;28;20422;-77
2023/10/03 09:53:27;;;;;;;19.20;10.27;;;20.90;99.90;;;;;;5035859;28;20918;-74
2023/10/03 09:55:56;;;;;;;19.67;11.00;;;20.90;99.20;;;;;;5035185;28;20429;-77
2023/10/03 09:58:31;;;;;;;15.50;9.40;;;20.80;96.00;;;;;;5035506;28;20401;-74
2023/10/03 10:00:57;;;;;;;19.63;9.37;;;20.70;96.00;;;;;;5035619;28;20762;-77
2023/10/03 10:03:33;;;;;;;15.20;9.20;;;20.60;96.00;;;;;;5035658;28;20410;-74
2023/10/03 10:06:21;;;;;;;15.67;8.70;;;20.40;95.90;;;;;;5035060;28;20453;-74
2023/10/03 10:08:58;;;;;;;17.40;9.07;;;20.30;99.90;;;;;;5035518;28;20945;-74
2023/10/03 10:11:27;;;;;;;12.20;8.13;;;20.20;99.90;;;;;;5035454;28;20503;-73
2023/10/03 10:14:16;;;;;;;12.90;8.20;;;20.10;99.90;;;;;;5034805;28;20762;-75
2023/10/03 10:17:03;;;;;;;15.30;9.10;;;20.00;99.90;;;;;;5035142;28;20450;-73
2023/10/03 10:20:07;;;;;;;16.13;8.47;;;19.90;99.90;;;;;;5035391;28;20890;-75
2023/10/03 10:25:51;;;;;;;13.77;7.40;;;19.80;99.90;;;;;;5033803;28;20465;-72
2023/10/03 10:28:26;;;;;;;12.53;8.00;;;19.70;99.90;;;;;;5034854;28;20453;-73
2023/10/03 10:31:10;;;;;;;8.17;6.87;;;19.70;99.90;;;;;;5035158;28;20426;-76
2023/10/03 10:33:36;;;;;;;14.33;6.30;;;19.80;99.90;;;;;;5034727;28;20394;-76
2023/10/03 10:36:08;;;;;;;14.77;7.73;;;19.80;99.90;;;;;;5034243;28;20425;-76
2023/10/03 10:38:34;;;;;;;17.07;5.67;;;19.90;99.90;;;;;;5034842;28;20171;-70
2023/10/03 10:41:17;;;;;;;7.53;4.73;;;20.10;99.90;;;;;;5034844;28;20390;-76
2023/10/03 10:44:09;;;;;;;9.23;5.50;;;20.20;95.80;;;;;;5034145;28;20441;-75
2023/10/03 10:46:39;;;;;;;10.67;4.90;;;20.10;95.70;;;;;;5034347;28;20444;-76
2023/10/03 10:49:26;;;;;;;12.80;4.37;;;20.00;95.70;;;;;;5034558;28;20945;-72
2023/10/03 10:51:55;;;;;;;9.43;4.83;;;19.90;95.60;;;;;;5034616;28;20403;-75
2023/10/03 10:54:25;;;;;;;8.90;4.23;;;19.80;95.60;;;;;;5033382;28;20409;-73
2023/10/03 10:57:01;;;;;;;8.03;4.20;;;19.60;95.50;;;;;;5040408;28;20909;-74
2023/10/03 10:59:27;;;;;;;7.30;4.90;;;19.50;95.50;;;;;;5036538;28;20421;-73
2023/10/03 11:01:53;;;;;;;14.67;4.67;;;19.40;95.50;;;;;;5052058;28;20436;-72
2023/10/03 11:04:26;;;;;;;6.10;4.37;;;19.20;99.90;;;;;;5053456;28;20758;-72
2023/10/03 11:06:54;;;;;;;10.43;4.10;;;19.10;99.90;;;;;;5054191;28;20402;-76
2023/10/03 11:09:20;;;;;;;6.40;3.83;;;18.90;99.90;;;;;;5052985;28;20535;-73
2023/10/03 11:11:47;;;;;;;5.30;3.60;;;18.90;99.90;;;;;;5052882;28;20406;-77
2023/10/03 11:14:29;;;;;;;7.93;2.97;;;18.90;99.90;;;;;;5052684;28;20898;-76
2023/10/03 11:16:56;;;;;;;7.43;3.40;;;18.80;99.90;;;;;;5052896;28;20455;-75
2023/10/03 11:19:22;;;;;;;7.03;2.30;;;18.70;99.90;;;;;;5054114;28;20425;-71
2023/10/03 11:21:48;;;;;;;4.07;1.90;;;18.60;99.90;;;;;;5054068;28;20403;-75
2023/10/03 11:24:21;;;;;;;6.20;1.97;;;18.50;99.90;;;;;;5053152;28;20393;-77
2023/10/03 11:26:53;;;;;;;3.30;1.10;;;18.40;99.90;;;;;;5053794;28;20447;-74
2023/10/03 11:29:40;;;;;;;4.37;1.17;;;18.20;95.10;;;;;;5052916;28;20468;-73
2023/10/03 11:32:20;;;;;;;2.03;0.77;;;18.20;91.50;;;;;;5052585;28;20471;-72
2023/10/03 11:34:48;;;;;;;7.33;1.13;;;18.00;62.60;;;;;;5034939;28;20937;-76
2023/10/03 11:37:36;;;;;;;2.17;1.37;;;18.00;69.10;;;;;;5052699;28;20433;-72
2023/10/03 11:40:15;;;;;;;1.60;1.00;;;17.90;65.30;;;;;;5053793;28;20401;-72
2023/10/03 11:42:50;;;;;;;2.77;1.20;;;18.00;67.90;;;;;;5052695;28;20429;-72
2023/10/03 11:45:20;;;;;;;3.90;1.80;;;17.90;65.90;;;;;;5051395;28;20504;-73
2023/10/03 11:48:07;;;;;;;4.23;1.50;;;17.80;70.30;;;;;;5053214;28;20397;-75
2023/10/03 11:50:39;;;;;;;2.10;1.27;;;17.70;74.40;;;;;;5052432;28;20432;-76
2023/10/03 11:53:08;;;;;;;2.63;1.00;;;17.60;67.30;;;;;;5053364;28;20405;-75
2023/10/03 11:55:36;;;;;;;1.90;0.73;;;17.60;60.90;;;;;;5052506;28;20955;-77
2023/10/03 11:58:03;;;;;;;3.97;1.90;;;17.60;39.80;;;;;;5052229;28;20432;-76
2023/10/03 12:00:29;;;;;;;4.37;1.10;;;17.50;27.50;;;;;;5052178;28;20872;-76
2023/10/03 12:02:55;;;;;;;3.87;0.90;;;17.50;21.30;;;;;;5053376;28;20873;-75
2023/10/03 12:05:22;;;;;;;3.47;1.60;;;17.60;26.40;;;;;;5049669;28;20538;-76
2023/10/03 12:07:50;;;;;;;6.90;1.70;;;17.70;21.10;;;;;;5053169;28;20385;-75
2023/10/03 12:10:20;;;;;;;4.73;2.40;;;17.80;28.30;;;;;;5053231;28;20402;-73
2023/10/03 12:12:46;;;;;;;1.70;0.90;;;17.70;43.00;;;;;;5052166;28;20455;-74
2023/10/03 12:15:12;;;;;;;5.30;1.27;;;17.20;66.20;;;;;;5032644;28;20445;-75
2023/10/03 12:17:42;;;;;;;3.13;0.97;;;17.00;94.60;;;;;;5053072;28;20401;-75
2023/10/03 12:20:13;;;;;;;3.57;0.90;;;16.90;94.60;;;;;;5053245;28;20568;-75
2023/10/03 12:22:43;;;;;;;7.43;2.03;;;16.80;99.40;;;;;;5051791;28;20429;-73
2023/10/03 12:25:15;;;;;;;2.27;0.90;;;16.80;99.90;;;;;;5051847;28;20770;-73
2023/10/03 12:27:42;;;;;;;2.90;0.90;;;17.00;99.90;;;;;;5052987;28;20616;-73
2023/10/03 12:30:10;;;;;;;4.60;1.40;;;17.30;99.90;;;;;;5050747;28;20472;-76
2023/10/03 12:32:38;;;;;;;4.97;1.07;;;17.30;97.80;;;;;;5052438;28;20440;-76
2023/10/03 12:35:05;;;;;;;2.40;1.20;;;17.30;94.70;;;;;;5051802;28;20429;-74
2023/10/03 12:37:32;;;;;;;4.10;1.43;;;17.30;94.70;;;;;;5050792;28;20500;-75
2023/10/03 12:40:04;;;;;;;3.73;1.33;;;17.30;94.70;;;;;;5052493;28;20753;-76
2023/10/03 12:42:31;;;;;;;4.03;1.20;;;17.40;94.70;;;;;;5052840;28;20758;-76
2023/10/03 12:45:00;;;;;;;3.00;1.10;;;17.40;94.70;;;;;;5047398;28;20462;-73
2023/10/03 12:47:27;;;;;;;2.30;1.23;;;17.30;94.80;;;;;;5051722;28;20448;-76
2023/10/03 12:49:53;;;;;;;2.30;1.50;;;17.20;94.70;;;;;;5052725;28;20449;-73
2023/10/03 12:52:19;;;;;;;1.23;1.00;;;17.00;94.80;;;;;;5051766;28;20390;-78
2023/10/03 12:54:45;;;;;;;5.23;1.60;;;16.70;94.50;;;;;;5052070;28;20202;-77
2023/10/03 12:57:11;;;;;;;2.67;0.90;;;16.60;94.40;;;;;;5052784;28;20508;-77
2023/10/03 12:59:37;;;;;;;1.27;0.90;;;16.70;94.50;;;;;;5050174;28;20441;-74
2023/10/03 13:02:05;;;;;;;4.40;1.27;;;16.80;94.50;;;;;;5051775;28;20786;-76
2023/10/03 13:04:32;;;;;;;4.50;1.17;;;16.70;94.50;;;;;;5051558;28;20163;-72